createdAt,value
2023-04-14T00:01:37.305Z,100.00
2023-04-14T00:04:04.063Z,100.00
2023-04-14T00:06:30.856Z,100.00
2023-04-14T00:08:58.093Z,100.00
2023-04-14T00:11:25.045Z,100.00
2023-04-14T00:13:51.555Z,100.00
2023-04-14T00:16:18.233Z,100.00
2023-04-14T00:18:44.921Z,100.00
2023-04-14T00:21:11.487Z,100.00
2023-04-14T00:23:37.999Z,100.00
2023-04-14T00:26:05.132Z,100.00
2023-04-14T00:28:31.679Z,100.00
2023-04-14T00:30:58.249Z,100.00
2023-04-14T00:33:24.822Z,100.00
2023-04-14T00:35:51.566Z,100.00
2023-04-14T00:38:18.430Z,100.00
2023-04-14T00:40:45.125Z,100.00
2023-04-14T00:43:11.607Z,100.00
2023-04-14T00:45:44.762Z,100.00
2023-04-14T00:48:12.295Z,100.00
2023-04-14T00:50:39.151Z,100.00
2023-04-14T00:53:05.978Z,100.00
2023-04-14T00:55:33.866Z,100.00
2023-04-14T00:58:01.424Z,100.00
2023-04-14T01:00:28.672Z,100.00
2023-04-14T01:02:55.344Z,100.00
2023-04-14T01:05:22.335Z,100.00
2023-04-14T01:07:49.881Z,100.00
2023-04-14T01:10:16.948Z,100.00
2023-04-14T01:12:46.434Z,100.00
2023-04-14T01:16:08.574Z,100.00
2023-04-14T01:18:37.897Z,100.00
2023-04-14T01:21:17.332Z,100.00
2023-04-14T01:24:21.966Z,100.00
2023-04-14T01:27:04.966Z,100.00
2023-04-14T01:29:55.574Z,100.00
2023-04-14T01:32:24.374Z,100.00
2023-04-14T01:34:54.068Z,100.00
2023-04-14T01:37:46.115Z,100.00
2023-04-14T01:40:16.936Z,100.00
2023-04-14T01:42:52.206Z,100.00
2023-04-14T01:45:25.470Z,100.00
2023-04-14T01:47:53.259Z,100.00
2023-04-14T01:50:22.279Z,100.00
2023-04-14T01:52:54.302Z,100.00
2023-04-14T01:55:23.654Z,100.00
2023-04-14T01:57:54.327Z,100.00
2023-04-14T02:00:23.179Z,100.00
2023-04-14T02:02:52.311Z,100.00
2023-04-14T02:05:21.683Z,100.00
2023-04-14T02:07:49.596Z,100.00
2023-04-14T02:10:19.402Z,100.00
2023-04-14T02:12:48.654Z,100.00
2023-04-14T02:15:17.333Z,100.00
2023-04-14T02:17:46.628Z,100.00
2023-04-14T02:20:14.893Z,100.00
2023-04-14T02:22:41.677Z,100.00
2023-04-14T02:25:09.124Z,100.00
2023-04-14T02:27:41.575Z,100.00
2023-04-14T02:30:21.789Z,100.00
2023-04-14T02:32:53.260Z,100.00
2023-04-14T02:35:27.053Z,100.00
2023-04-14T02:38:05.430Z,100.00
2023-04-14T02:40:35.018Z,100.00
2023-04-14T02:43:07.876Z,100.00
2023-04-14T02:45:37.129Z,100.00
2023-04-14T02:48:10.363Z,100.00
2023-04-14T02:50:37.612Z,100.00
2023-04-14T02:53:05.023Z,100.00
2023-04-14T02:55:32.315Z,100.00
2023-04-14T02:58:00.222Z,100.00
2023-04-14T03:00:27.590Z,100.00
2023-04-14T03:02:55.760Z,100.00
2023-04-14T03:05:23.761Z,100.00
2023-04-14T03:07:54.045Z,100.00
2023-04-14T03:10:23.035Z,100.00
2023-04-14T03:12:51.382Z,100.00
2023-04-14T03:15:20.076Z,100.00
2023-04-14T03:17:53.993Z,100.00
2023-04-14T03:20:23.416Z,100.00
2023-04-14T03:22:58.018Z,100.00
2023-04-14T03:25:28.202Z,100.00
2023-04-14T03:27:57.670Z,100.00
2023-04-14T03:30:26.087Z,100.00
2023-04-14T03:32:54.334Z,100.00
2023-04-14T03:35:22.635Z,100.00
2023-04-14T03:37:51.152Z,100.00
2023-04-14T03:40:17.969Z,100.00
2023-04-14T03:42:46.340Z,100.00
2023-04-14T03:45:12.974Z,100.00
2023-04-14T03:47:39.561Z,100.00
2023-04-14T03:50:09.330Z,100.00
2023-04-14T03:52:38.081Z,100.00
2023-04-14T03:55:07.777Z,100.00
2023-04-14T03:57:36.500Z,100.00
2023-04-14T04:00:05.333Z,100.00
2023-04-14T04:02:32.655Z,100.00
2023-04-14T04:04:59.974Z,100.00
2023-04-14T04:07:28.548Z,100.00
2023-04-14T04:09:56.884Z,100.00
2023-04-14T04:12:25.428Z,100.00
2023-04-14T04:14:52.079Z,100.00
2023-04-14T04:17:22.902Z,100.00
2023-04-14T04:19:50.549Z,100.00
2023-04-14T04:22:20.320Z,100.00
2023-04-14T04:24:47.779Z,100.00
2023-04-14T04:27:26.568Z,100.00
2023-04-14T04:29:54.730Z,100.00
2023-04-14T04:32:21.622Z,100.00
2023-04-14T04:34:49.698Z,100.00
2023-04-14T04:37:17.199Z,100.00
2023-04-14T04:39:43.785Z,100.00
2023-04-14T04:42:10.690Z,100.00
2023-04-14T04:44:37.299Z,100.00
2023-04-14T04:47:04.381Z,100.00
2023-04-14T04:49:30.919Z,100.00
2023-04-14T04:51:57.454Z,100.00
2023-04-14T04:54:23.996Z,100.00
2023-04-14T04:56:50.636Z,100.00
2023-04-14T04:59:17.512Z,100.00
2023-04-14T05:01:44.276Z,100.00
2023-04-14T05:04:11.852Z,100.00
2023-04-14T05:06:38.586Z,100.00
2023-04-14T05:09:05.444Z,100.00
2023-04-14T05:11:33.296Z,100.00
2023-04-14T05:13:59.827Z,100.00
2023-04-14T05:16:28.257Z,100.00
2023-04-14T05:18:54.863Z,100.00
2023-04-14T05:21:21.719Z,100.00
2023-04-14T05:23:48.614Z,100.00
2023-04-14T05:26:38.812Z,100.00
2023-04-14T05:29:02.078Z,100.00
2023-04-14T05:31:29.004Z,100.00
2023-04-14T05:33:55.727Z,100.00
2023-04-14T05:36:22.303Z,100.00
2023-04-14T05:38:48.874Z,100.00
2023-04-14T05:41:15.501Z,100.00
2023-04-14T05:43:42.086Z,100.00
2023-04-14T05:46:08.665Z,100.00
2023-04-14T05:48:37.702Z,100.00
2023-04-14T05:51:04.309Z,100.00
2023-04-14T05:53:31.000Z,100.00
2023-04-14T05:55:57.671Z,100.00
2023-04-14T05:58:26.540Z,100.00
2023-04-14T06:00:53.479Z,100.00
2023-04-14T06:03:20.429Z,100.00
2023-04-14T06:05:48.266Z,100.00
2023-04-14T06:08:14.834Z,100.00
2023-04-14T06:10:41.455Z,100.00
2023-04-14T06:13:08.742Z,100.00
2023-04-14T06:15:35.385Z,100.00
2023-04-14T06:18:02.049Z,100.00
2023-04-14T06:20:31.865Z,100.00
2023-04-14T06:23:00.844Z,100.00
2023-04-14T06:25:27.348Z,100.00
2023-04-14T06:27:53.874Z,100.00
2023-04-14T06:30:20.666Z,100.00
2023-04-14T06:32:48.681Z,100.00
2023-04-14T06:35:29.529Z,100.00
2023-04-14T06:37:58.719Z,100.00
2023-04-14T06:40:25.388Z,100.00
2023-04-14T06:42:51.981Z,100.00
2023-04-14T06:45:18.653Z,100.00
2023-04-14T06:47:45.302Z,100.00
2023-04-14T06:50:12.620Z,100.00
2023-04-14T06:52:39.233Z,100.00
2023-04-14T06:55:06.211Z,100.00
2023-04-14T06:57:32.782Z,100.00
2023-04-14T06:59:59.404Z,100.00
2023-04-14T07:02:26.162Z,100.00
2023-04-14T07:04:52.836Z,100.00
2023-04-14T07:07:19.548Z,100.00
2023-04-14T07:09:46.168Z,100.00
2023-04-14T07:12:17.146Z,100.00
2023-04-14T07:14:51.003Z,100.00
2023-04-14T07:17:20.495Z,100.00
2023-04-14T07:19:47.130Z,100.00
2023-04-14T07:22:13.738Z,100.00
2023-04-14T07:24:41.098Z,100.00
2023-04-14T07:27:09.192Z,100.00
2023-04-14T07:29:35.791Z,100.00
2023-04-14T07:32:02.603Z,100.00
2023-04-14T07:34:29.173Z,100.00
2023-04-14T07:36:55.793Z,100.00
2023-04-14T07:39:23.840Z,100.00
2023-04-14T07:41:50.682Z,100.00
2023-04-14T07:44:17.225Z,100.00
2023-04-14T07:46:44.027Z,100.00
2023-04-14T07:49:10.898Z,100.00
2023-04-14T07:51:37.900Z,100.00
2023-04-14T07:54:06.183Z,100.00
2023-04-14T07:56:32.903Z,100.00
2023-04-14T07:58:59.526Z,100.00
2023-04-14T08:01:27.540Z,100.00
2023-04-14T08:03:54.653Z,100.00
2023-04-14T08:06:21.522Z,100.00
2023-04-14T08:08:48.139Z,100.00
2023-04-14T08:11:14.717Z,100.00
2023-04-14T08:13:42.281Z,100.00
2023-04-14T08:16:09.468Z,100.00
2023-04-14T08:18:36.841Z,100.00
2023-04-14T08:21:03.426Z,100.00
2023-04-14T08:23:29.935Z,100.00
2023-04-14T08:25:56.617Z,100.00
2023-04-14T08:28:23.163Z,100.00
2023-04-14T08:30:49.706Z,100.00
2023-04-14T08:33:16.658Z,100.00
2023-04-14T08:35:43.927Z,100.00
2023-04-14T08:38:11.008Z,100.00
2023-04-14T08:40:43.365Z,100.00
2023-04-14T08:43:13.744Z,100.00
2023-04-14T08:45:42.060Z,100.00
2023-04-14T08:48:10.342Z,100.00
2023-04-14T08:50:38.253Z,100.00
2023-04-14T08:53:09.466Z,100.00
2023-04-14T08:55:41.514Z,100.00
2023-04-14T08:58:12.152Z,100.00
2023-04-14T09:00:40.319Z,100.00
2023-04-14T09:03:09.499Z,100.00
2023-04-14T09:05:37.523Z,100.00
2023-04-14T09:08:04.465Z,100.00
2023-04-14T09:10:31.802Z,100.00
2023-04-14T09:12:58.857Z,100.00
2023-04-14T09:15:29.100Z,100.00
2023-04-14T09:17:56.150Z,100.00
2023-04-14T09:20:38.326Z,100.00
2023-04-14T09:23:10.058Z,100.00
2023-04-14T09:25:38.491Z,100.00
2023-04-14T09:28:05.113Z,100.00
2023-04-14T09:30:32.251Z,100.00
2023-04-14T09:32:58.989Z,100.00
2023-04-14T09:35:45.870Z,100.00
2023-04-14T09:38:12.518Z,100.00
2023-04-14T09:40:42.729Z,100.00
2023-04-14T09:43:22.382Z,100.00
2023-04-14T09:45:48.970Z,100.00
2023-04-14T09:48:15.661Z,100.00
2023-04-14T09:50:58.997Z,100.00
2023-04-14T09:53:29.792Z,100.00
2023-04-14T09:55:57.749Z,100.00
2023-04-14T09:58:27.317Z,100.00
2023-04-14T10:00:54.889Z,100.00
2023-04-14T10:03:36.006Z,100.00
2023-04-14T10:06:06.342Z,100.00
2023-04-14T10:08:36.386Z,100.00
2023-04-14T10:11:18.110Z,100.00
2023-04-14T10:13:46.903Z,100.00
2023-04-14T10:16:14.580Z,100.00
2023-04-14T10:18:41.882Z,100.00
2023-04-14T10:21:09.340Z,100.00
2023-04-14T10:23:41.303Z,100.00
2023-04-14T10:26:09.893Z,100.00
2023-04-14T10:28:39.014Z,100.00
2023-04-14T10:31:09.946Z,99.38
2023-04-14T10:33:38.185Z,100.00
2023-04-14T10:36:05.007Z,100.00
2023-04-14T10:38:44.624Z,100.00
2023-04-14T10:41:11.735Z,100.00
2023-04-14T10:43:39.647Z,96.12
2023-04-14T10:46:08.178Z,88.71
2023-04-14T10:48:36.762Z,89.08
2023-04-14T10:51:09.807Z,88.30
2023-04-14T10:53:36.735Z,84.75
2023-04-14T10:56:04.429Z,88.76
2023-04-14T10:58:31.323Z,95.97
2023-04-14T11:00:57.950Z,100.00
2023-04-14T11:03:27.404Z,100.00
2023-04-14T11:05:55.246Z,100.00
2023-04-14T11:08:27.194Z,100.00
2023-04-14T11:11:07.096Z,100.00
2023-04-14T11:13:34.858Z,96.26
2023-04-14T11:16:07.280Z,97.50
2023-04-14T11:18:38.672Z,98.14
2023-04-14T11:21:07.534Z,96.35
2023-04-14T11:23:36.469Z,93.03
2023-04-14T11:26:06.202Z,85.87
2023-04-14T11:28:37.580Z,86.73
2023-04-14T11:31:06.750Z,82.37
2023-04-14T11:33:35.883Z,78.34
2023-04-14T11:36:04.461Z,84.71
2023-04-14T11:38:31.676Z,90.32
2023-04-14T11:40:58.619Z,96.38
2023-04-14T11:43:25.183Z,93.93
2023-04-14T11:45:52.700Z,85.46
2023-04-14T11:48:20.402Z,88.17
2023-04-14T11:50:47.935Z,72.30
2023-04-14T11:53:16.573Z,71.70
2023-04-14T11:55:45.463Z,77.69
2023-04-14T11:58:20.461Z,75.81
2023-04-14T12:00:48.939Z,79.90
2023-04-14T12:03:16.021Z,83.03
2023-04-14T12:05:43.165Z,79.13
2023-04-14T12:08:12.012Z,74.54
2023-04-14T12:10:41.747Z,75.35
2023-04-14T12:13:10.464Z,77.23
2023-04-14T12:15:38.976Z,75.46
2023-04-14T12:18:11.668Z,73.50
2023-04-14T12:20:55.580Z,72.13
2023-04-14T12:23:23.486Z,71.97
2023-04-14T12:25:50.765Z,66.64
2023-04-14T12:28:25.483Z,71.45
2023-04-14T12:30:54.253Z,64.86
2023-04-14T12:33:24.174Z,66.78
2023-04-14T12:35:51.570Z,68.21
2023-04-14T12:38:18.391Z,65.21
2023-04-14T12:40:47.788Z,64.17
2023-04-14T12:43:16.789Z,63.68
2023-04-14T12:45:44.954Z,70.93
2023-04-14T12:48:17.622Z,68.08
2023-04-14T12:50:45.202Z,68.21
2023-04-14T12:53:23.664Z,61.05
2023-04-14T12:56:09.942Z,67.36
2023-04-14T12:58:38.039Z,68.61
2023-04-14T13:01:09.311Z,75.64
2023-04-14T13:03:46.459Z,89.85
2023-04-14T13:06:18.860Z,91.60
2023-04-14T13:08:47.282Z,95.28
2023-04-14T13:11:15.230Z,99.25
2023-04-14T13:13:42.121Z,100.00
2023-04-14T13:16:13.447Z,99.95
2023-04-14T13:18:42.740Z,92.51
2023-04-14T13:21:10.272Z,99.04
2023-04-14T13:23:36.876Z,100.00
2023-04-14T13:26:04.125Z,100.00
2023-04-14T13:28:31.451Z,84.14
2023-04-14T13:30:58.192Z,73.34
2023-04-14T13:33:25.875Z,68.89
2023-04-14T13:35:53.510Z,62.88
2023-04-14T13:38:20.194Z,64.59
2023-04-14T13:40:48.273Z,67.42
2023-04-14T13:43:17.299Z,69.56
2023-04-14T13:45:43.967Z,69.95
2023-04-14T13:48:10.481Z,66.68
2023-04-14T13:50:37.276Z,65.10
2023-04-14T13:53:04.042Z,64.66
2023-04-14T13:55:30.819Z,66.87
2023-04-14T13:57:57.337Z,69.96
2023-04-14T14:00:24.004Z,71.06
2023-04-14T14:02:51.948Z,70.47
2023-04-14T14:05:18.894Z,72.13
2023-04-14T14:07:45.593Z,76.89
2023-04-14T14:10:12.368Z,84.25
2023-04-14T14:12:39.008Z,87.17
2023-04-14T14:15:06.225Z,87.57
2023-04-14T14:17:32.945Z,78.96
2023-04-14T14:19:59.720Z,78.63
2023-04-14T14:22:26.525Z,79.42
2023-04-14T14:25:00.911Z,82.21
2023-04-14T14:27:33.722Z,83.72
2023-04-14T14:30:00.265Z,86.40
2023-04-14T14:32:26.968Z,97.23
2023-04-14T14:34:53.501Z,96.36
2023-04-14T14:37:21.507Z,90.92
2023-04-14T14:39:48.198Z,97.47
2023-04-14T14:42:14.821Z,92.35
2023-04-14T14:44:41.357Z,95.20
2023-04-14T14:47:07.954Z,92.32
2023-04-14T14:49:34.624Z,95.60
2023-04-14T14:52:04.094Z,90.70
2023-04-14T14:54:30.809Z,91.59
2023-04-14T14:56:57.530Z,88.45
2023-04-14T14:59:24.106Z,91.09
2023-04-14T15:01:50.714Z,89.91
2023-04-14T15:04:17.481Z,98.82
2023-04-14T15:06:44.403Z,100.00
2023-04-14T15:09:11.400Z,100.00
2023-04-14T15:11:37.915Z,100.00
2023-04-14T15:14:04.643Z,100.00
2023-04-14T15:16:31.312Z,100.00
2023-04-14T15:18:58.163Z,100.00
2023-04-14T15:21:24.779Z,100.00
2023-04-14T15:23:51.504Z,100.00
2023-04-14T15:26:18.289Z,100.00
2023-04-14T15:28:45.391Z,100.00
2023-04-14T15:31:11.936Z,100.00
2023-04-14T15:33:38.445Z,100.00
2023-04-14T15:36:05.373Z,100.00
2023-04-14T15:38:31.926Z,100.00
2023-04-14T15:40:59.604Z,100.00
2023-04-14T15:43:27.760Z,100.00
2023-04-14T15:45:54.550Z,100.00
2023-04-14T15:48:21.287Z,100.00
2023-04-14T15:50:47.860Z,100.00
2023-04-14T15:53:14.386Z,100.00
2023-04-14T15:55:40.944Z,100.00
2023-04-14T15:58:07.703Z,100.00
2023-04-14T16:00:34.284Z,100.00
2023-04-14T16:03:02.253Z,100.00
2023-04-14T16:05:29.137Z,100.00
2023-04-14T16:07:56.076Z,100.00
2023-04-14T16:10:23.268Z,100.00
2023-04-14T16:12:50.559Z,100.00
2023-04-14T16:15:17.477Z,100.00
2023-04-14T16:17:45.021Z,100.00
2023-04-14T16:20:14.785Z,100.00
2023-04-14T16:22:41.374Z,100.00
2023-04-14T16:25:08.331Z,100.00
2023-04-14T16:27:34.957Z,100.00
2023-04-14T16:30:02.628Z,100.00
2023-04-14T16:32:30.158Z,100.00
2023-04-14T16:34:57.207Z,100.00
2023-04-14T16:37:26.083Z,100.00
2023-04-14T16:39:56.364Z,100.00
2023-04-14T16:42:24.611Z,100.00
2023-04-14T16:44:55.005Z,100.00
2023-04-14T16:47:22.552Z,100.00
2023-04-14T16:49:53.023Z,100.00
2023-04-14T16:52:19.998Z,100.00
2023-04-14T16:54:46.700Z,100.00
2023-04-14T16:57:13.739Z,100.00
2023-04-14T16:59:40.537Z,100.00
2023-04-14T17:02:08.354Z,100.00
2023-04-14T17:04:35.411Z,100.00
2023-04-14T17:07:02.380Z,100.00
2023-04-14T17:09:29.120Z,100.00
2023-04-14T17:11:57.015Z,100.00
2023-04-14T17:14:23.685Z,100.00
2023-04-14T17:16:50.293Z,100.00
2023-04-14T17:19:17.141Z,100.00
2023-04-14T17:21:45.533Z,100.00
2023-04-14T17:24:12.732Z,100.00
2023-04-14T17:26:39.289Z,100.00
2023-04-14T17:29:05.850Z,100.00
2023-04-14T17:31:32.796Z,100.00
2023-04-14T17:34:00.264Z,100.00
2023-04-14T17:36:28.417Z,100.00
2023-04-14T17:38:55.475Z,100.00
2023-04-14T17:41:22.525Z,100.00
2023-04-14T17:43:49.109Z,100.00
2023-04-14T17:46:17.519Z,100.00
2023-04-14T17:48:44.126Z,100.00
2023-04-14T17:51:11.467Z,100.00
2023-04-14T17:53:38.171Z,100.00
2023-04-14T17:56:05.903Z,100.00
2023-04-14T17:58:32.655Z,100.00
2023-04-14T18:00:59.355Z,100.00
2023-04-14T18:03:26.097Z,100.00
2023-04-14T18:05:53.997Z,100.00
2023-04-14T18:08:20.623Z,100.00
2023-04-14T18:10:47.155Z,100.00
2023-04-14T18:13:13.687Z,100.00
2023-04-14T18:15:43.438Z,100.00
2023-04-14T18:18:10.350Z,100.00
2023-04-14T18:20:37.502Z,100.00
2023-04-14T18:23:05.256Z,100.00
2023-04-14T18:28:03.301Z,100.00
2023-04-14T18:30:30.321Z,100.00
2023-04-14T18:32:56.969Z,100.00
2023-04-14T18:35:23.866Z,100.00
2023-04-14T18:37:50.501Z,100.00
2023-04-14T18:40:17.511Z,100.00
2023-04-14T18:42:44.661Z,100.00
2023-04-14T18:45:12.464Z,100.00
2023-04-14T18:47:39.379Z,100.00
2023-04-14T18:50:07.528Z,100.00
2023-04-14T18:52:34.050Z,100.00
2023-04-14T18:55:00.795Z,100.00
2023-04-14T18:57:29.114Z,100.00
2023-04-14T18:59:55.830Z,100.00
2023-04-14T19:02:22.509Z,100.00
2023-04-14T19:04:49.166Z,100.00
2023-04-14T19:07:15.725Z,100.00
2023-04-14T19:09:42.269Z,100.00
2023-04-14T19:12:15.795Z,100.00
2023-04-14T19:14:51.798Z,100.00
2023-04-14T19:17:18.644Z,100.00
2023-04-14T19:19:45.173Z,100.00
2023-04-14T19:22:11.812Z,100.00
2023-04-14T19:24:39.244Z,100.00
2023-04-14T19:27:08.693Z,100.00
2023-04-14T19:29:36.857Z,100.00
2023-04-14T19:32:04.906Z,100.00
2023-04-14T19:34:32.059Z,100.00
2023-04-14T19:36:58.711Z,100.00
2023-04-14T19:39:25.680Z,100.00
2023-04-14T19:41:52.572Z,100.00
2023-04-14T19:44:19.368Z,100.00
2023-04-14T19:46:46.553Z,100.00
2023-04-14T19:49:13.506Z,100.00
2023-04-14T19:51:40.490Z,100.00
2023-04-14T19:54:07.648Z,100.00
2023-04-14T19:56:34.996Z,100.00
2023-04-14T19:59:01.892Z,100.00
2023-04-14T20:01:28.808Z,100.00
2023-04-14T20:04:09.747Z,100.00
2023-04-14T20:06:39.512Z,100.00
2023-04-14T20:09:06.650Z,100.00
2023-04-14T20:11:33.204Z,100.00
2023-04-14T20:13:59.915Z,100.00
2023-04-14T20:16:26.765Z,100.00
2023-04-14T20:18:53.388Z,100.00
2023-04-14T20:21:20.041Z,100.00
2023-04-14T20:23:47.024Z,100.00
2023-04-14T20:26:13.953Z,100.00
2023-04-14T20:28:40.476Z,100.00
2023-04-14T20:31:08.816Z,100.00
2023-04-14T20:33:36.782Z,100.00
2023-04-14T20:36:03.836Z,100.00
2023-04-14T20:38:30.604Z,100.00
2023-04-14T20:40:57.195Z,100.00
2023-04-14T20:43:23.888Z,100.00
2023-04-14T20:45:52.680Z,100.00
2023-04-14T20:48:19.542Z,100.00
2023-04-14T20:50:49.618Z,100.00
2023-04-14T20:53:17.190Z,100.00
2023-04-14T20:55:43.737Z,100.00
2023-04-14T20:58:10.807Z,100.00
2023-04-14T21:00:37.359Z,100.00
2023-04-14T21:03:04.342Z,100.00
2023-04-14T21:05:31.068Z,100.00
2023-04-14T21:07:57.643Z,100.00
2023-04-14T21:10:24.279Z,100.00
2023-04-14T21:15:28.537Z,100.00
2023-04-14T21:15:53.480Z,100.00
2023-04-14T21:18:22.370Z,100.00
2023-04-14T21:20:48.967Z,100.00
2023-04-14T21:23:16.107Z,100.00
2023-04-14T21:25:42.692Z,100.00
2023-04-14T21:28:09.280Z,100.00
2023-04-14T21:30:36.118Z,100.00
2023-04-14T21:33:04.220Z,100.00
2023-04-14T21:35:32.443Z,100.00
2023-04-14T21:37:59.127Z,100.00
2023-04-14T21:40:25.748Z,100.00
2023-04-14T21:42:53.119Z,100.00
2023-04-14T21:45:19.744Z,100.00
2023-04-14T21:47:46.843Z,100.00
2023-04-14T21:50:14.934Z,100.00
2023-04-14T21:52:41.518Z,100.00
2023-04-14T21:55:09.258Z,100.00
2023-04-14T21:57:44.453Z,100.00
2023-04-14T22:00:17.754Z,100.00
2023-04-14T22:02:45.299Z,100.00
2023-04-14T22:05:13.357Z,100.00
2023-04-14T22:07:39.937Z,100.00
2023-04-14T22:10:07.099Z,100.00
2023-04-14T22:12:35.956Z,100.00
2023-04-14T22:15:04.199Z,100.00
2023-04-14T22:17:31.324Z,100.00
2023-04-14T22:19:59.195Z,100.00
2023-04-14T22:22:25.718Z,100.00
2023-04-14T22:24:54.637Z,100.00
2023-04-14T22:27:21.551Z,100.00
2023-04-14T22:29:48.386Z,100.00
2023-04-14T22:32:16.275Z,100.00
2023-04-14T22:34:43.090Z,100.00
2023-04-14T22:37:09.634Z,100.00
2023-04-14T22:39:36.355Z,100.00
2023-04-14T22:42:02.903Z,100.00
2023-04-14T22:44:29.453Z,100.00
2023-04-14T22:46:56.291Z,100.00
2023-04-14T22:49:22.824Z,100.00
2023-04-14T22:51:49.366Z,100.00
2023-04-14T22:54:16.305Z,100.00
2023-04-14T22:56:42.955Z,100.00
2023-04-14T22:59:09.702Z,100.00
2023-04-14T23:01:36.308Z,100.00
2023-04-14T23:04:05.477Z,100.00
2023-04-14T23:06:32.571Z,100.00
2023-04-14T23:08:59.756Z,100.00
2023-04-14T23:11:27.111Z,100.00
2023-04-14T23:13:53.680Z,100.00
2023-04-14T23:16:20.627Z,100.00
2023-04-14T23:18:52.440Z,100.00
2023-04-14T23:21:22.191Z,100.00
2023-04-14T23:23:49.582Z,100.00
2023-04-14T23:26:17.397Z,100.00
2023-04-14T23:28:43.985Z,100.00
2023-04-14T23:31:10.938Z,100.00
2023-04-14T23:33:37.637Z,100.00
2023-04-14T23:36:04.468Z,100.00
2023-04-14T23:38:30.989Z,100.00
2023-04-14T23:40:59.121Z,100.00
2023-04-14T23:43:27.522Z,100.00
2023-04-14T23:45:54.537Z,100.00
2023-04-14T23:48:21.286Z,100.00
2023-04-14T23:51:00.412Z,100.00
2023-04-14T23:53:35.647Z,100.00
2023-04-14T23:56:03.930Z,100.00
2023-04-14T23:58:30.770Z,100.00
